Time;durP1;ratioP1;P1;durP2;ratioP2;P2;SDS_P1;SDS_P2;PMS_P1;PMS_P2;Temp;Humidity;BMP_temperature;BMP_pressure;BME280_temperature;BME280_humidity;BME280_pressure;Samples;Min_cycle;Max_cycle;Signal;HPM_P1;HPM_P2
2022/03/17 00:04:24;;;;;;;19.58;8.23;;;10.60;1.00;;;;;;10434254;28;84596;-46
2022/03/17 00:09:25;;;;;;;17.08;8.48;;;10.60;1.00;;;;;;10439971;28;85984;-50
2022/03/17 00:14:26;;;;;;;18.05;9.25;;;10.60;1.00;;;;;;10409730;28;84989;-48
2022/03/17 00:19:26;;;;;;;21.05;9.55;;;10.60;1.00;;;;;;10419051;28;84971;-49
2022/03/17 00:24:27;;;;;;;19.23;8.93;;;10.50;1.00;;;;;;10451084;28;84168;-49
2022/03/17 00:29:28;;;;;;;20.27;9.35;;;10.50;1.00;;;;;;10442398;27;85578;-46
2022/03/17 00:34:28;;;;;;;18.75;8.55;;;10.40;1.00;;;;;;10398614;28;85792;-45
2022/03/17 00:39:29;;;;;;;18.83;8.73;;;10.40;1.00;;;;;;10417144;28;84879;-50
2022/03/17 00:44:30;;;;;;;19.67;9.15;;;10.40;1.00;;;;;;10416932;28;84871;-46
2022/03/17 00:49:30;;;;;;;20.05;8.55;;;10.50;1.00;;;;;;10427730;28;84923;-47
2022/03/17 00:54:31;;;;;;;18.23;8.73;;;10.40;1.00;;;;;;10458195;28;84411;-47
2022/03/17 00:59:33;;;;;;;19.80;8.98;;;10.40;1.00;;;;;;10426036;28;85448;-46
2022/03/17 01:04:35;;;;;;;20.95;9.57;;;10.40;1.00;;;;;;10397575;28;85138;-48
2022/03/17 01:09:36;;;;;;;17.85;8.35;;;10.50;1.00;;;;;;10418264;28;84859;-46
2022/03/17 01:14:36;;;;;;;19.10;9.52;;;10.40;1.00;;;;;;10397380;28;85465;-47
2022/03/17 01:19:37;;;;;;;18.83;8.93;;;10.40;1.00;;;;;;10426621;28;84917;-48
2022/03/17 01:24:38;;;;;;;17.92;8.32;;;10.40;1.00;;;;;;10457421;28;84784;-46
2022/03/17 01:29:41;;;;;;;19.63;9.63;;;10.40;1.00;;;;;;10442714;28;84078;-47
2022/03/17 01:34:42;;;;;;;18.15;8.65;;;10.40;1.00;;;;;;10396553;28;85192;-48
2022/03/17 01:39:43;;;;;;;20.27;9.52;;;10.40;1.00;;;;;;10407684;28;85280;-46
2022/03/17 01:44:43;;;;;;;18.10;8.43;;;10.40;1.00;;;;;;10455996;28;84979;-46
2022/03/17 01:49:44;;;;;;;19.35;8.40;;;10.40;1.00;;;;;;10441774;28;84945;-47
2022/03/17 01:54:46;;;;;;;15.90;8.48;;;10.50;1.00;;;;;;10413524;28;85629;-48
2022/03/17 01:59:48;;;;;;;18.58;7.72;;;10.50;1.00;;;;;;10407802;28;84879;-47
2022/03/17 02:04:48;;;;;;;19.33;8.82;;;10.40;1.00;;;;;;10455183;28;86371;-47
2022/03/17 02:09:49;;;;;;;17.92;8.32;;;10.40;1.00;;;;;;10422464;28;86489;-47
2022/03/17 02:14:54;;;;;;;17.88;9.50;;;10.40;1.00;;;;;;10414093;28;85031;-46
2022/03/17 02:19:56;;;;;;;19.58;8.30;;;10.40;1.00;;;;;;10413203;28;84212;-47
2022/03/17 02:30:19;;;;;;;21.70;8.85;;;10.40;1.00;;;;;;10444848;28;86606;-46
2022/03/17 02:35:22;;;;;;;20.73;9.70;;;10.40;1.00;;;;;;10436086;28;84540;-48
2022/03/17 02:40:25;;;;;;;17.48;8.32;;;10.30;1.00;;;;;;10433473;28;85171;-47
2022/03/17 02:45:26;;;;;;;18.27;9.32;;;10.30;1.00;;;;;;10411668;28;84951;-48
2022/03/17 02:50:26;;;;;;;16.63;8.63;;;10.20;1.00;;;;;;10429710;28;86420;-47
2022/03/17 02:55:27;;;;;;;16.20;8.40;;;10.20;1.00;;;;;;10418294;28;86868;-43
2022/03/17 03:00:28;;;;;;;18.77;9.23;;;10.20;1.00;;;;;;10434022;28;85884;-45
2022/03/17 03:05:29;;;;;;;18.63;9.32;;;10.30;1.00;;;;;;10410821;28;85579;-45
2022/03/17 03:10:30;;;;;;;17.25;9.80;;;10.30;1.00;;;;;;10393528;28;84924;-45
2022/03/17 03:15:31;;;;;;;17.88;9.00;;;10.40;1.00;;;;;;10385361;28;85943;-45
2022/03/17 03:20:34;;;;;;;17.55;9.38;;;10.50;1.00;;;;;;10449209;22;84156;-49
2022/03/17 03:25:34;;;;;;;21.08;10.32;;;10.50;1.00;;;;;;10409965;28;85406;-50
2022/03/17 03:30:36;;;;;;;21.08;9.55;;;10.50;99.90;;;;;;10390415;28;84123;-51
2022/03/17 03:40:57;;;;;;;18.10;9.50;;;10.60;99.90;;;;;;10363103;28;84752;-52
2022/03/17 03:45:57;;;;;;;19.65;10.27;;;10.60;99.90;;;;;;10342841;28;87393;-52
2022/03/17 03:50:58;;;;;;;17.77;8.38;;;10.70;99.90;;;;;;10373264;28;86605;-50
2022/03/17 03:55:58;;;;;;;19.13;9.85;;;10.70;99.90;;;;;;10351510;28;83960;-49
2022/03/17 04:00:59;;;;;;;20.05;9.45;;;10.80;99.90;;;;;;10410113;28;84934;-52
2022/03/17 04:06:00;;;;;;;15.40;9.30;;;10.80;99.90;;;;;;10408886;28;84074;-53
2022/03/17 04:11:00;;;;;;;20.33;10.50;;;10.90;97.20;;;;;;10410638;28;84091;-53
2022/03/17 04:16:01;;;;;;;17.30;9.65;;;10.90;37.20;;;;;;10408994;28;96665;-54
2022/03/17 04:21:02;;;;;;;19.98;10.45;;;10.90;1.00;;;;;;10408997;28;84113;-49
2022/03/17 04:26:02;;;;;;;18.95;9.85;;;11.00;1.00;;;;;;10388516;28;84516;-52
2022/03/17 04:31:03;;;;;;;25.15;10.88;;;11.00;1.00;;;;;;10367950;28;85465;-56
2022/03/17 04:36:05;;;;;;;20.63;10.70;;;11.00;1.00;;;;;;10367824;28;84182;-47
2022/03/17 04:41:06;;;;;;;20.40;11.13;;;11.00;1.00;;;;;;10400937;28;84243;-49
2022/03/17 04:46:07;;;;;;;20.65;10.65;;;11.00;1.00;;;;;;10408045;28;84823;-49
2022/03/17 04:51:08;;;;;;;21.50;10.63;;;11.00;1.00;;;;;;10408027;28;85207;-48
2022/03/17 04:56:17;;;;;;;17.77;9.57;;;11.00;1.00;;;;;;10408077;28;84399;-51
2022/03/17 05:01:18;;;;;;;19.73;10.70;;;11.00;1.00;;;;;;10411079;28;84813;-48
2022/03/17 05:06:19;;;;;;;23.30;10.57;;;11.10;1.00;;;;;;10409584;28;84871;-51
2022/03/17 05:11:19;;;;;;;21.58;10.85;;;11.20;1.00;;;;;;10361412;28;86366;-52
2022/03/17 05:16:20;;;;;;;20.15;10.30;;;11.20;1.00;;;;;;10346174;28;85149;-50
2022/03/17 05:21:21;;;;;;;19.77;10.75;;;11.30;1.00;;;;;;10382592;28;84115;-51
2022/03/17 05:26:21;;;;;;;20.80;10.88;;;11.30;1.00;;;;;;10413108;28;85143;-55
2022/03/17 05:31:22;;;;;;;20.88;10.93;;;11.40;1.00;;;;;;10413831;28;84047;-53
2022/03/17 05:36:25;;;;;;;23.45;10.98;;;11.50;1.00;;;;;;10408228;28;85544;-50
2022/03/17 05:41:26;;;;;;;18.83;10.40;;;11.50;1.00;;;;;;10408409;28;85192;-51
2022/03/17 05:46:27;;;;;;;19.95;11.02;;;11.50;99.90;;;;;;10394551;28;85696;-54
2022/03/17 05:51:27;;;;;;;19.73;10.75;;;11.50;1.00;;;;;;10376520;28;84981;-53
2022/03/17 05:56:28;;;;;;;19.98;11.55;;;11.50;1.00;;;;;;10372792;28;84139;-47
2022/03/17 06:01:28;;;;;;;23.35;11.68;;;11.40;1.00;;;;;;10387680;28;85063;-50
2022/03/17 06:06:29;;;;;;;25.38;12.50;;;11.20;1.00;;;;;;10401869;28;84008;-50
2022/03/17 06:11:30;;;;;;;26.92;12.57;;;11.10;1.00;;;;;;10386141;28;84953;-53
2022/03/17 06:16:31;;;;;;;22.85;11.50;;;11.10;48.70;;;;;;10412328;28;84034;-54
2022/03/17 06:21:32;;;;;;;23.98;12.60;;;11.00;99.90;;;;;;10381076;28;84466;-45
2022/03/17 06:26:33;;;;;;;33.23;19.60;;;11.00;99.90;;;;;;10349714;28;84971;-50
2022/03/17 06:31:36;;;;;;;26.67;13.18;;;11.00;99.90;;;;;;10376289;28;84853;-49
2022/03/17 06:36:37;;;;;;;29.67;13.75;;;10.90;99.90;;;;;;10379684;28;84911;-48
2022/03/17 06:41:37;;;;;;;27.38;13.75;;;11.00;99.90;;;;;;10409032;28;84319;-53
2022/03/17 06:46:38;;;;;;;28.58;13.57;;;11.00;99.90;;;;;;10411606;28;84893;-51
2022/03/17 06:51:38;;;;;;;27.58;13.50;;;11.10;99.90;;;;;;10412884;28;84024;-48
2022/03/17 06:56:39;;;;;;;29.10;14.82;;;11.00;99.90;;;;;;10408520;28;84994;-54
2022/03/17 07:01:40;;;;;;;31.27;15.70;;;11.00;99.90;;;;;;10391158;28;84212;-47
2022/03/17 07:06:40;;;;;;;31.83;15.70;;;11.00;99.90;;;;;;10407922;28;84216;-49
2022/03/17 07:11:42;;;;;;;33.60;15.43;;;11.00;99.90;;;;;;10391177;28;85161;-60
2022/03/17 07:16:43;;;;;;;28.35;13.80;;;11.00;99.90;;;;;;10356104;28;84219;-53
2022/03/17 07:21:44;;;;;;;25.50;12.95;;;10.90;99.90;;;;;;10370484;28;84847;-51
2022/03/17 07:26:45;;;;;;;25.88;11.57;;;11.00;99.90;;;;;;10369484;28;84861;-49
2022/03/17 07:31:45;;;;;;;18.80;10.23;;;10.90;99.90;;;;;;10369383;28;84946;-49
2022/03/17 07:36:46;;;;;;;19.38;8.63;;;10.80;99.90;;;;;;10372127;28;84997;-53
2022/03/17 07:41:46;;;;;;;11.15;5.43;;;10.70;99.90;;;;;;10365510;28;84229;-51
2022/03/17 07:46:48;;;;;;;9.43;3.67;;;10.50;99.90;;;;;;10366234;28;84151;-52
2022/03/17 07:52:06;;;;;;;8.25;5.05;;;10.10;99.90;;;;;;10348204;28;85769;-50
2022/03/17 07:57:08;;;;;;;6.65;4.38;;;9.90;99.90;;;;;;10364644;28;85173;-52
2022/03/17 08:02:09;;;;;;;7.90;4.32;;;9.80;99.90;;;;;;10366659;28;84929;-61
2022/03/17 08:07:09;;;;;;;9.30;4.75;;;9.70;99.90;;;;;;10394456;28;84315;-50
2022/03/17 08:12:10;;;;;;;9.43;4.63;;;9.70;99.90;;;;;;10393396;28;84245;-56
2022/03/17 08:17:10;;;;;;;6.70;4.53;;;9.60;99.90;;;;;;10380757;28;85007;-50
2022/03/17 08:22:11;;;;;;;9.23;4.80;;;9.60;99.90;;;;;;10352741;28;83949;-51
2022/03/17 08:27:12;;;;;;;7.47;4.85;;;9.60;99.90;;;;;;10370500;28;84938;-51
2022/03/17 08:32:12;;;;;;;7.18;4.40;;;9.60;99.90;;;;;;10363171;28;84287;-52
2022/03/17 08:37:14;;;;;;;11.68;4.63;;;9.60;57.20;;;;;;10340525;28;84897;-53
2022/03/17 08:42:15;;;;;;;8.60;4.40;;;9.60;66.50;;;;;;10369391;28;84510;-49
2022/03/17 08:52:35;;;;;;;7.75;3.80;;;9.30;81.50;;;;;;10356648;28;85960;-50
2022/03/17 08:57:36;;;;;;;6.88;3.92;;;9.20;23.30;;;;;;10374181;28;84112;-50
2022/03/17 09:02:37;;;;;;;6.70;3.65;;;9.20;19.50;;;;;;10374398;28;84934;-54
2022/03/17 09:07:37;;;;;;;6.05;2.85;;;9.30;1.00;;;;;;10374084;28;84787;-51
2022/03/17 09:12:38;;;;;;;4.18;2.78;;;9.40;1.00;;;;;;10374424;28;83988;-51
2022/03/17 09:17:41;;;;;;;4.97;2.58;;;9.40;1.00;;;;;;10373275;28;86161;-51
2022/03/17 09:22:43;;;;;;;2.92;2.03;;;9.40;1.00;;;;;;10445103;22;85831;-49
2022/03/17 09:27:43;;;;;;;7.60;2.17;;;9.30;1.00;;;;;;10453289;28;84310;-49
2022/03/17 09:32:47;;;;;;;5.80;2.22;;;9.30;1.00;;;;;;10454681;27;84730;-52
2022/03/17 09:37:49;;;;;;;4.25;1.42;;;9.20;1.00;;;;;;10453184;28;84088;-49
2022/03/17 09:42:49;;;;;;;2.50;1.23;;;9.20;1.00;;;;;;10453164;28;84889;-49
2022/03/17 09:47:50;;;;;;;5.20;1.15;;;9.20;1.00;;;;;;10453885;27;84068;-53
2022/03/17 09:52:51;;;;;;;9.27;1.80;;;9.30;1.00;;;;;;10455008;28;84975;-52
2022/03/17 09:57:52;;;;;;;3.72;0.80;;;9.20;1.00;;;;;;10454014;27;84967;-51
2022/03/17 10:02:53;;;;;;;3.78;0.80;;;9.30;1.00;;;;;;10453981;27;84085;-52
2022/03/17 10:07:53;;;;;;;2.03;0.63;;;9.40;1.00;;;;;;10452911;28;84378;-48
2022/03/17 10:13:13;;;;;;;4.47;0.88;;;9.40;1.00;;;;;;10453288;28;84966;-50
2022/03/17 10:18:24;;;;;;;3.05;0.60;;;9.50;1.00;;;;;;10452479;27;84957;-51
2022/03/17 10:23:24;;;;;;;1.88;0.40;;;9.70;1.00;;;;;;10453494;28;84837;-49
2022/03/17 10:28:26;;;;;;;2.40;0.50;;;9.80;1.00;;;;;;10451934;28;86493;-47
2022/03/17 10:33:29;;;;;;;3.42;0.40;;;9.70;1.00;;;;;;10451496;28;84911;-54
2022/03/17 10:38:42;;;;;;;2.85;0.40;;;9.70;1.00;;;;;;10452367;28;84243;-55
2022/03/17 10:43:43;;;;;;;2.25;0.38;;;9.50;1.00;;;;;;10453711;27;84139;-50
2022/03/17 10:49:05;;;;;;;4.00;0.77;;;9.30;1.00;;;;;;10449903;28;84202;-51
2022/03/17 10:54:08;;;;;;;2.97;0.65;;;9.30;1.00;;;;;;10452893;27;84522;-49
2022/03/17 10:59:09;;;;;;;1.65;0.65;;;9.30;1.00;;;;;;10451476;28;84268;-54
2022/03/17 11:04:11;;;;;;;10.32;0.98;;;9.40;1.00;;;;;;10453421;28;84712;-53
2022/03/17 11:09:11;;;;;;;2.90;0.77;;;9.50;1.00;;;;;;10450525;28;84948;-50
2022/03/17 11:14:13;;;;;;;1.23;0.38;;;9.60;1.00;;;;;;10451192;28;84222;-49
2022/03/17 11:19:17;;;;;;;3.22;0.70;;;9.40;1.00;;;;;;10450805;27;84846;-49
2022/03/17 11:24:22;;;;;;;3.08;0.73;;;9.30;1.00;;;;;;10451980;28;84863;-49
2022/03/17 11:29:25;;;;;;;3.92;1.08;;;9.20;1.00;;;;;;10448285;28;85027;-49
2022/03/17 11:34:46;;;;;;;1.25;0.47;;;9.50;1.00;;;;;;10450741;28;83995;-50
2022/03/17 11:39:53;;;;;;;3.40;0.60;;;9.70;99.90;;;;;;10449603;28;84825;-51
2022/03/17 11:45:17;;;;;;;4.82;0.80;;;9.80;99.90;;;;;;10451752;28;84783;-49
2022/03/17 11:50:40;;;;;;;1.38;0.55;;;9.90;47.40;;;;;;10445012;27;84965;-49
2022/03/17 11:55:53;;;;;;;10.48;1.23;;;10.00;1.00;;;;;;10450670;27;84356;-49
2022/03/17 12:01:22;;;;;;;5.55;1.42;;;9.90;1.00;;;;;;10450247;27;84191;-51
2022/03/17 12:06:28;;;;;;;5.85;0.85;;;10.00;1.00;;;;;;10449539;28;85045;-48
2022/03/17 12:11:31;;;;;;;2.15;0.75;;;10.00;1.00;;;;;;10450750;28;84864;-49
2022/03/17 12:16:42;;;;;;;4.10;1.35;;;10.00;1.00;;;;;;10448201;28;84473;-48
2022/03/17 12:21:58;;;;;;;6.97;0.90;;;10.20;1.00;;;;;;10447633;28;84305;-53
2022/03/17 12:27:05;;;;;;;2.72;0.70;;;10.20;1.00;;;;;;10454930;27;85060;-49
2022/03/17 12:32:14;;;;;;;3.28;0.90;;;10.20;1.00;;;;;;10456830;28;84132;-47
2022/03/17 12:37:17;;;;;;;4.90;0.88;;;10.30;1.00;;;;;;10456257;27;84205;-49
2022/03/17 12:42:24;;;;;;;2.85;0.63;;;10.50;1.00;;;;;;10455303;28;84442;-50
2022/03/17 12:47:28;;;;;;;4.50;1.02;;;10.50;1.00;;;;;;10455654;28;84370;-50
2022/03/17 12:52:30;;;;;;;3.47;0.77;;;10.50;1.00;;;;;;10455948;27;84831;-49
2022/03/17 12:57:33;;;;;;;5.75;0.68;;;10.70;1.00;;;;;;10455476;28;85021;-54
2022/03/17 13:02:33;;;;;;;4.10;0.80;;;10.60;1.00;;;;;;10456168;28;84094;-53
2022/03/17 13:07:35;;;;;;;2.92;0.50;;;10.60;1.00;;;;;;10455194;27;84937;-49
2022/03/17 13:18:04;;;;;;;6.20;0.90;;;10.70;99.90;;;;;;10454653;28;85260;-51
2022/03/17 13:23:14;;;;;;;3.17;0.45;;;10.80;99.90;;;;;;10453239;28;86104;-52
2022/03/17 13:28:20;;;;;;;2.03;0.80;;;10.60;99.90;;;;;;10454785;28;84199;-50
2022/03/17 13:33:32;;;;;;;5.90;0.90;;;10.50;99.90;;;;;;10454302;28;84139;-53
2022/03/17 13:38:39;;;;;;;4.28;1.00;;;10.60;1.00;;;;;;10453843;27;84199;-53
2022/03/17 13:43:40;;;;;;;3.17;0.70;;;10.90;1.00;;;;;;10454724;27;84916;-49
2022/03/17 13:48:40;;;;;;;2.53;0.75;;;11.00;1.00;;;;;;10452368;28;84187;-49
2022/03/17 13:53:41;;;;;;;4.28;0.90;;;11.20;1.00;;;;;;10454937;28;84343;-50
2022/03/17 13:58:44;;;;;;;4.18;0.95;;;11.30;1.00;;;;;;10453232;28;84940;-52
2022/03/17 14:03:47;;;;;;;2.88;0.57;;;11.20;1.00;;;;;;10452218;28;85744;-46
2022/03/17 14:08:53;;;;;;;4.47;0.55;;;11.20;1.00;;;;;;10452577;28;84906;-51
2022/03/17 14:14:02;;;;;;;5.13;1.00;;;11.20;1.00;;;;;;10453940;27;84761;-50
2022/03/17 14:19:04;;;;;;;4.15;0.95;;;11.40;1.00;;;;;;10451668;27;84298;-52
2022/03/17 14:24:11;;;;;;;5.20;1.10;;;11.50;99.90;;;;;;10454121;27;84853;-51
2022/03/17 14:29:14;;;;;;;1.52;0.52;;;11.50;99.90;;;;;;10452708;28;84854;-48
2022/03/17 14:34:16;;;;;;;3.53;0.80;;;11.40;99.90;;;;;;10453676;27;84939;-49
2022/03/17 14:39:17;;;;;;;2.38;1.10;;;11.50;99.90;;;;;;10452524;28;84105;-52
2022/03/17 14:44:18;;;;;;;3.08;1.00;;;11.50;99.90;;;;;;10452546;28;84890;-50
2022/03/17 14:49:18;;;;;;;3.63;1.08;;;11.40;99.90;;;;;;10447557;27;87071;-51
2022/03/17 14:54:19;;;;;;;3.40;0.95;;;11.50;99.90;;;;;;10452898;27;84275;-52
2022/03/17 14:59:20;;;;;;;7.22;0.90;;;11.60;1.00;;;;;;10451999;28;88120;-52
2022/03/17 15:04:20;;;;;;;3.22;0.57;;;11.70;1.00;;;;;;10452459;27;84893;-51
2022/03/17 15:09:21;;;;;;;3.13;0.95;;;11.60;1.00;;;;;;10450487;28;84902;-51
2022/03/17 15:14:22;;;;;;;3.97;1.10;;;11.50;1.00;;;;;;10452366;28;84133;-53
2022/03/17 15:24:53;;;;;;;2.35;0.80;;;11.60;99.90;;;;;;10414967;28;84627;-55
2022/03/17 15:30:12;;;;;;;2.47;0.73;;;11.60;99.90;;;;;;10414235;28;84270;-54
2022/03/17 15:35:15;;;;;;;2.70;0.90;;;11.70;1.00;;;;;;10413540;28;84907;-50
2022/03/17 15:40:17;;;;;;;3.33;0.90;;;11.60;1.00;;;;;;10411963;28;83988;-49
2022/03/17 15:45:18;;;;;;;3.13;0.50;;;11.40;1.00;;;;;;10412662;28;84873;-52
2022/03/17 15:50:19;;;;;;;4.72;0.93;;;11.30;99.90;;;;;;10412332;28;84806;-55
2022/03/17 15:55:20;;;;;;;2.47;0.80;;;11.30;99.90;;;;;;10413846;28;84998;-54
2022/03/17 16:00:27;;;;;;;1.60;0.63;;;11.30;2.50;;;;;;10411696;28;84178;-55
2022/03/17 16:05:28;;;;;;;1.90;0.60;;;11.30;1.00;;;;;;10411356;28;84867;-50
2022/03/17 16:15:48;;;;;;;2.40;0.98;;;11.30;99.90;;;;;;10412071;28;85117;-52
2022/03/17 16:20:49;;;;;;;2.42;0.85;;;11.30;99.90;;;;;;10427471;28;85454;-52
2022/03/17 16:25:52;;;;;;;3.97;1.17;;;11.20;99.90;;;;;;10411147;28;84940;-53
2022/03/17 16:30:53;;;;;;;3.08;1.25;;;11.20;1.00;;;;;;10410425;28;85333;-50
2022/03/17 16:35:53;;;;;;;4.38;1.05;;;11.30;99.90;;;;;;10409586;28;84919;-53
2022/03/17 16:40:54;;;;;;;2.35;1.00;;;11.20;99.90;;;;;;10408480;28;85388;-53
2022/03/17 16:45:55;;;;;;;3.92;0.90;;;11.20;99.90;;;;;;10410486;28;85188;-51
2022/03/17 16:50:57;;;;;;;2.65;1.02;;;11.00;1.00;;;;;;10408261;28;85482;-54
2022/03/17 16:55:57;;;;;;;2.63;1.10;;;11.00;1.00;;;;;;10409276;28;85648;-53
2022/03/17 17:00:58;;;;;;;4.65;1.15;;;11.00;1.00;;;;;;10409497;28;84939;-52
2022/03/17 17:05:59;;;;;;;4.32;1.10;;;10.90;1.00;;;;;;10407518;28;84027;-52
2022/03/17 17:10:59;;;;;;;1.45;1.02;;;10.90;1.00;;;;;;10388453;28;84448;-50
2022/03/17 17:16:00;;;;;;;4.40;1.42;;;10.90;1.00;;;;;;10413973;28;84939;-51
2022/03/17 17:21:01;;;;;;;2.38;1.02;;;10.80;1.00;;;;;;10371010;28;84765;-48
2022/03/17 17:31:21;;;;;;;4.60;1.00;;;10.70;99.90;;;;;;10452486;28;84445;-51
2022/03/17 17:36:23;;;;;;;3.45;1.17;;;10.60;99.90;;;;;;10447019;28;84626;-47
2022/03/17 17:41:23;;;;;;;1.73;0.98;;;10.50;1.00;;;;;;10408997;28;84087;-51
2022/03/17 17:46:24;;;;;;;3.50;1.20;;;10.50;1.00;;;;;;10406540;28;84397;-46
2022/03/17 17:51:25;;;;;;;3.20;1.50;;;10.30;1.00;;;;;;10369073;28;84387;-46
2022/03/17 17:56:27;;;;;;;5.40;1.40;;;10.30;99.90;;;;;;10386161;28;85120;-49
2022/03/17 18:01:28;;;;;;;5.78;2.25;;;10.20;99.90;;;;;;10409892;28;84129;-47
2022/03/17 18:06:28;;;;;;;3.85;1.65;;;10.10;99.90;;;;;;10403935;28;92703;-51
2022/03/17 18:11:29;;;;;;;5.43;2.00;;;10.10;99.90;;;;;;10368640;28;84980;-48
2022/03/17 18:16:30;;;;;;;4.75;1.70;;;10.10;99.90;;;;;;10393567;28;85115;-51
2022/03/17 18:21:31;;;;;;;4.65;1.90;;;10.00;99.90;;;;;;10409703;28;85357;-53
2022/03/17 18:26:31;;;;;;;5.97;1.80;;;10.00;1.00;;;;;;10409077;28;84205;-55
2022/03/17 18:31:35;;;;;;;6.45;2.00;;;9.90;1.00;;;;;;10409322;28;84253;-50
2022/03/17 18:36:35;;;;;;;3.95;2.08;;;9.80;1.00;;;;;;10401019;28;84192;-51
2022/03/17 18:41:36;;;;;;;4.07;2.42;;;9.70;1.00;;;;;;10403715;28;84946;-46
2022/03/17 18:46:37;;;;;;;5.05;2.47;;;9.60;99.90;;;;;;10405736;28;86264;-48
2022/03/17 18:51:37;;;;;;;9.43;3.65;;;9.60;99.90;;;;;;10396787;28;85760;-50
2022/03/17 18:56:38;;;;;;;8.20;3.45;;;9.50;99.90;;;;;;10397603;28;85659;-48
2022/03/17 19:01:39;;;;;;;5.95;2.63;;;9.40;99.90;;;;;;10384123;28;84919;-50
2022/03/17 19:06:39;;;;;;;3.00;1.80;;;9.40;99.90;;;;;;10375012;28;84194;-48
2022/03/17 19:11:45;;;;;;;5.95;2.10;;;9.30;99.90;;;;;;10385603;28;85132;-49
2022/03/17 19:16:46;;;;;;;3.17;1.90;;;9.30;99.90;;;;;;10385820;28;84093;-50
2022/03/17 19:21:47;;;;;;;7.65;2.40;;;9.20;99.90;;;;;;10399544;28;84961;-50
2022/03/17 19:26:49;;;;;;;4.07;2.08;;;9.20;99.90;;;;;;10383159;28;84285;-51
2022/03/17 19:31:50;;;;;;;3.53;2.30;;;9.10;96.30;;;;;;10384570;28;84907;-50
2022/03/17 19:36:51;;;;;;;5.43;2.42;;;9.20;1.00;;;;;;10403773;28;84790;-52
2022/03/17 19:41:52;;;;;;;6.38;1.92;;;9.20;1.00;;;;;;10423249;28;84260;-49
2022/03/17 19:46:55;;;;;;;3.95;1.73;;;9.20;1.00;;;;;;10447143;28;84904;-49
2022/03/17 19:51:55;;;;;;;3.90;2.08;;;9.10;1.00;;;;;;10435869;27;84960;-47
2022/03/17 19:56:56;;;;;;;3.67;1.70;;;9.00;1.00;;;;;;10446632;28;83962;-52
2022/03/17 20:01:57;;;;;;;6.78;1.52;;;8.90;1.00;;;;;;10411528;28;84361;-48
2022/03/17 20:06:58;;;;;;;7.03;1.88;;;8.80;1.00;;;;;;10410824;28;85117;-50
2022/03/17 20:17:18;;;;;;;7.30;2.58;;;8.50;99.90;;;;;;10396247;28;85318;-53
2022/03/17 20:22:19;;;;;;;4.07;2.00;;;8.50;19.50;;;;;;10395712;28;84928;-47
2022/03/17 20:27:20;;;;;;;4.15;1.55;;;8.50;1.00;;;;;;10401490;28;85877;-54
2022/03/17 20:32:20;;;;;;;5.75;1.90;;;8.40;1.00;;;;;;10400458;28;84725;-52
2022/03/17 20:37:21;;;;;;;8.20;1.98;;;8.30;1.00;;;;;;10396561;28;84507;-53
2022/03/17 20:42:22;;;;;;;6.15;1.88;;;8.30;18.80;;;;;;10404730;28;84334;-51
2022/03/17 20:47:23;;;;;;;4.22;1.83;;;8.20;84.60;;;;;;10399439;28;84843;-54
2022/03/17 20:52:24;;;;;;;3.55;1.40;;;8.20;99.90;;;;;;10387577;28;84934;-48
2022/03/17 20:57:24;;;;;;;3.15;1.70;;;8.10;99.90;;;;;;10449885;28;84262;-53
2022/03/17 21:02:25;;;;;;;5.15;2.17;;;8.10;99.90;;;;;;10427653;28;85138;-48
2022/03/17 21:07:26;;;;;;;5.10;1.83;;;8.10;99.90;;;;;;10414173;28;84938;-53
2022/03/17 21:12:26;;;;;;;5.68;1.88;;;8.00;99.90;;;;;;10413018;28;84838;-49
2022/03/17 21:17:27;;;;;;;12.77;2.10;;;7.90;99.90;;;;;;10414952;28;85066;-50
2022/03/17 21:22:29;;;;;;;3.72;2.15;;;7.90;1.00;;;;;;10476040;22;84537;-46
2022/03/17 21:27:30;;;;;;;2.30;1.70;;;7.80;1.00;;;;;;10480021;27;84957;-47
2022/03/17 21:32:32;;;;;;;7.07;1.92;;;7.80;1.00;;;;;;10493571;27;84816;-47
2022/03/17 21:37:33;;;;;;;4.63;1.65;;;7.80;1.00;;;;;;10497306;27;84588;-46
2022/03/17 21:42:34;;;;;;;7.35;1.83;;;7.80;1.00;;;;;;10471110;27;85951;-47
2022/03/17 21:47:34;;;;;;;3.83;1.60;;;7.70;1.00;;;;;;10499681;27;85082;-46
2022/03/17 21:52:35;;;;;;;5.43;1.67;;;7.70;1.00;;;;;;10502325;27;84274;-46
2022/03/17 21:57:36;;;;;;;5.35;1.85;;;7.60;1.00;;;;;;10497329;27;84810;-45
2022/03/17 22:02:37;;;;;;;4.28;1.77;;;7.60;1.00;;;;;;10497402;27;84997;-51
2022/03/17 22:07:37;;;;;;;7.03;2.30;;;7.50;1.00;;;;;;10498717;27;84706;-49
2022/03/17 22:12:38;;;;;;;6.68;1.95;;;7.50;1.00;;;;;;10478656;27;86344;-45
2022/03/17 22:17:39;;;;;;;3.90;1.58;;;7.40;1.00;;;;;;10490472;27;85633;-44
2022/03/17 22:22:41;;;;;;;3.33;1.77;;;7.40;1.00;;;;;;10480493;27;84851;-51
2022/03/17 22:27:41;;;;;;;9.63;2.35;;;7.40;1.00;;;;;;10484818;27;84947;-48
2022/03/17 22:32:42;;;;;;;5.30;1.67;;;7.30;1.00;;;;;;10478149;27;84126;-46
2022/03/17 22:37:43;;;;;;;4.25;1.85;;;7.20;1.00;;;;;;10496684;27;84129;-48
2022/03/17 22:42:43;;;;;;;3.78;1.60;;;7.20;2.40;;;;;;10459397;27;84137;-48
2022/03/17 22:47:44;;;;;;;4.93;1.90;;;7.10;3.90;;;;;;10462914;27;84917;-46
2022/03/17 22:52:45;;;;;;;5.00;1.70;;;7.00;32.90;;;;;;10496626;27;84610;-47
2022/03/17 22:57:46;;;;;;;4.90;1.70;;;7.00;99.90;;;;;;10490234;27;84955;-49
2022/03/17 23:02:47;;;;;;;5.38;1.65;;;6.90;99.90;;;;;;10451391;28;84821;-49
2022/03/17 23:07:48;;;;;;;4.32;1.20;;;7.00;99.90;;;;;;10452424;27;84996;-44
2022/03/17 23:12:48;;;;;;;3.63;1.52;;;6.90;99.90;;;;;;10492844;27;84107;-50
2022/03/17 23:17:50;;;;;;;2.55;1.40;;;6.90;99.90;;;;;;10488569;27;84969;-48
2022/03/17 23:22:51;;;;;;;2.30;1.33;;;6.80;99.90;;;;;;10476854;27;84346;-51
2022/03/17 23:27:52;;;;;;;5.35;1.70;;;6.80;99.90;;;;;;10494242;27;84764;-48
2022/03/17 23:32:53;;;;;;;9.18;2.17;;;6.70;99.90;;;;;;10493355;27;84108;-49
2022/03/17 23:37:54;;;;;;;3.38;1.52;;;6.70;99.90;;;;;;10491273;27;84933;-50
2022/03/17 23:42:54;;;;;;;6.43;2.33;;;6.70;99.90;;;;;;10493891;27;84032;-51
2022/03/17 23:47:55;;;;;;;2.42;1.58;;;6.60;99.90;;;;;;10491649;27;84780;-48
2022/03/17 23:52:58;;;;;;;7.32;1.85;;;6.50;1.00;;;;;;10491658;27;84144;-47
2022/03/17 23:57:59;;;;;;;4.63;1.77;;;6.50;1.00;;;;;;10490244;27;84955;-46
